Time;durP1;ratioP1;P1;durP2;ratioP2;P2;SDS_P1;SDS_P2;PMS_P1;PMS_P2;Temp;Humidity;BMP_temperature;BMP_pressure;BME280_temperature;BME280_humidity;BME280_pressure;Samples;Min_cycle;Max_cycle;Signal;HPM_P1;HPM_P2
2022/08/27 00:00:51;;;;;;;22.07;14.97;;;19.80;99.90;;;20.42;100.00;100642.19;4936205;29;20440;-71
2022/08/27 00:03:20;;;;;;;20.67;13.90;;;20.00;99.90;;;20.37;100.00;100652.06;4929530;29;20444;-71
2022/08/27 00:05:50;;;;;;;19.90;12.60;;;20.00;99.90;;;20.54;100.00;100659.22;4929857;29;20516;-71
2022/08/27 00:08:19;;;;;;;13.40;12.00;;;20.10;99.90;;;20.68;99.55;100654.81;4928958;29;20570;-71
2022/08/27 00:10:48;;;;;;;12.37;11.13;;;20.20;99.90;;;20.44;100.00;100653.69;4928385;29;20416;-71
2022/08/27 00:13:17;;;;;;;18.27;11.87;;;20.10;99.90;;;20.14;100.00;100652.53;4931141;29;20980;-71
2022/08/27 00:15:45;;;;;;;15.03;11.73;;;20.00;99.90;;;19.95;100.00;100643.13;4931517;29;20422;-72
2022/08/27 00:18:14;;;;;;;13.67;12.33;;;19.80;99.90;;;19.75;100.00;100635.66;4931375;29;20535;-71
2022/08/27 00:20:47;;;;;;;14.83;13.33;;;19.70;99.90;;;19.68;100.00;100631.50;4932029;29;20799;-71
2022/08/27 00:23:17;;;;;;;13.13;11.87;;;19.60;99.90;;;19.66;100.00;100628.19;4931019;29;20538;-72
2022/08/27 00:25:46;;;;;;;17.90;15.10;;;19.50;99.90;;;19.57;100.00;100627.06;4933098;29;20814;-72
2022/08/27 00:28:15;;;;;;;17.13;13.80;;;19.50;99.90;;;19.51;100.00;100624.28;4932291;29;20860;-72
2022/08/27 00:30:44;;;;;;;14.27;12.70;;;19.40;99.90;;;19.61;100.00;100623.50;4931163;28;20543;-72
2022/08/27 00:33:13;;;;;;;13.93;12.50;;;19.40;99.90;;;19.49;100.00;100618.25;4930345;29;20515;-72
2022/08/27 00:35:42;;;;;;;16.37;12.93;;;19.40;99.90;;;19.42;100.00;100614.06;4933209;29;20445;-72
2022/08/27 00:38:11;;;;;;;15.03;13.43;;;19.30;99.90;;;19.43;100.00;100611.06;4929735;29;21433;-72
2022/08/27 00:40:42;;;;;;;15.33;13.53;;;19.30;99.90;;;19.41;100.00;100610.50;4930850;29;20426;-72
2022/08/27 00:43:11;;;;;;;15.37;13.50;;;19.30;99.90;;;19.38;100.00;100611.03;4927186;29;20544;-72
2022/08/27 00:45:45;;;;;;;13.63;12.33;;;19.30;99.90;;;19.50;100.00;100608.94;4931469;29;20770;-72
2022/08/27 00:48:18;;;;;;;17.60;15.30;;;19.30;99.90;;;19.74;100.00;100611.22;4930352;29;20555;-72
2022/08/27 00:50:53;;;;;;;14.77;13.17;;;19.40;99.90;;;19.56;100.00;100611.72;4932906;29;20816;-72
2022/08/27 00:53:27;;;;;;;13.97;12.73;;;19.30;99.90;;;19.52;100.00;100616.88;4933569;29;20819;-72
2022/08/27 00:56:07;;;;;;;17.57;12.90;;;19.30;99.90;;;19.52;100.00;100612.22;4932811;29;20776;-72
2022/08/27 00:58:40;;;;;;;16.17;14.50;;;19.40;99.90;;;19.55;100.00;100615.53;4931184;29;20827;-72
2022/08/27 01:01:13;;;;;;;92.60;30.37;;;19.30;99.90;;;19.85;100.00;100607.41;4932469;29;20872;-72
2022/08/27 01:03:48;;;;;;;15.13;13.53;;;19.50;99.90;;;19.84;100.00;100614.84;4932913;29;20460;-72
2022/08/27 01:06:20;;;;;;;16.67;14.13;;;19.60;99.90;;;19.70;100.00;100613.69;4928766;29;20440;-72
2022/08/27 01:08:55;;;;;;;10.47;9.47;;;19.50;99.90;;;19.63;100.00;100609.53;4930687;29;20535;-72
2022/08/27 01:11:26;;;;;;;18.57;14.17;;;19.50;99.90;;;19.56;100.00;100608.97;4932169;29;20998;-72
2022/08/27 01:13:55;;;;;;;17.00;14.67;;;19.40;99.90;;;19.89;100.00;100611.28;4930876;29;20553;-72
2022/08/27 01:16:38;;;;;;;18.07;14.73;;;19.60;99.90;;;19.79;100.00;100616.72;4929449;29;20421;-72
2022/08/27 01:19:18;;;;;;;16.07;14.10;;;19.60;99.90;;;19.82;100.00;100621.69;4928742;29;20819;-72
2022/08/27 01:21:55;;;;;;;14.63;13.13;;;19.60;99.90;;;19.76;100.00;100620.00;4934484;29;20434;-72
2022/08/27 01:24:34;;;;;;;21.10;15.07;;;19.60;99.90;;;20.04;100.00;100625.06;4925335;29;20823;-71
2022/08/27 01:27:07;;;;;;;16.30;14.60;;;19.70;99.90;;;19.88;100.00;100623.34;4932679;29;20478;-72
2022/08/27 01:29:43;;;;;;;15.87;14.20;;;19.70;99.90;;;19.96;100.00;100622.81;4930835;29;20523;-72
2022/08/27 01:32:16;;;;;;;17.07;14.10;;;19.70;99.90;;;19.93;100.00;100623.38;4933996;29;20445;-72
2022/08/27 01:34:46;;;;;;;20.80;14.60;;;19.70;99.90;;;19.95;100.00;100615.66;4932992;29;20500;-73
2022/08/27 01:37:16;;;;;;;18.10;14.77;;;19.70;99.90;;;20.00;100.00;100623.91;4937309;29;20499;-71
2022/08/27 01:39:55;;;;;;;19.13;14.37;;;19.80;99.90;;;19.90;100.00;100623.88;4933874;29;20879;-71
2022/08/27 01:42:33;;;;;;;17.37;13.30;;;19.70;99.90;;;20.06;100.00;100617.34;4928941;29;20450;-71
2022/08/27 01:45:07;;;;;;;19.57;15.47;;;19.80;99.90;;;20.17;100.00;100612.69;4930776;29;20439;-71
2022/08/27 01:47:37;;;;;;;20.43;14.83;;;19.90;99.90;;;20.05;100.00;100621.19;4930284;29;20930;-71
2022/08/27 01:50:11;;;;;;;22.13;17.90;;;19.80;99.90;;;20.04;100.00;100625.06;4934727;29;20813;-71
2022/08/27 01:52:40;;;;;;;20.67;14.90;;;19.80;99.90;;;19.97;100.00;100635.47;4934005;29;20496;-71
2022/08/27 01:55:15;;;;;;;18.40;16.30;;;19.80;99.90;;;19.91;100.00;100636.53;4939660;29;20447;-73
2022/08/27 01:57:44;;;;;;;25.80;17.20;;;19.70;99.90;;;20.03;100.00;100622.56;4933399;29;20462;-72
2022/08/27 02:00:19;;;;;;;18.00;15.23;;;19.80;99.90;;;19.95;100.00;100623.91;4929613;29;20501;-72
2022/08/27 02:02:50;;;;;;;20.43;18.23;;;19.80;99.90;;;19.85;100.00;100630.19;4933683;29;20418;-73
2022/08/27 02:05:20;;;;;;;18.77;15.63;;;19.70;99.90;;;19.87;100.00;100618.94;4933866;29;20724;-72
2022/08/27 02:07:50;;;;;;;26.17;18.90;;;19.70;99.90;;;20.09;100.00;100622.28;4931181;29;20991;-72
2022/08/27 02:10:25;;;;;;;21.90;17.30;;;19.80;99.90;;;19.96;100.00;100633.78;4929358;29;20455;-72
2022/08/27 02:12:55;;;;;;;19.40;16.40;;;19.70;99.90;;;20.06;100.00;100641.25;4930936;29;20506;-71
2022/08/27 02:15:25;;;;;;;19.73;16.20;;;19.80;99.90;;;19.86;100.00;100636.50;4932159;29;20480;-73
2022/08/27 02:17:55;;;;;;;28.10;16.40;;;19.70;99.90;;;19.84;100.00;100633.22;4936509;29;20936;-72
2022/08/27 02:20:24;;;;;;;22.53;17.17;;;19.70;99.90;;;19.80;100.00;100629.38;4928437;29;20489;-72
2022/08/27 02:22:57;;;;;;;19.63;15.63;;;19.60;99.90;;;19.79;100.00;100628.53;4936900;28;20936;-71
2022/08/27 02:25:28;;;;;;;20.10;16.50;;;19.60;99.90;;;19.77;100.00;100625.22;4937335;28;20472;-71
2022/08/27 02:27:59;;;;;;;24.30;19.13;;;19.60;99.90;;;19.80;100.00;100626.63;4935769;29;20453;-72
2022/08/27 02:30:31;;;;;;;23.90;17.20;;;19.60;99.90;;;19.80;100.00;100618.38;4930805;29;20935;-70
2022/08/27 02:33:01;;;;;;;27.03;18.03;;;19.60;99.90;;;19.79;100.00;100628.53;4932746;29;20445;-71
2022/08/27 02:35:33;;;;;;;21.83;17.30;;;19.60;99.90;;;19.88;100.00;100629.66;4937268;29;20513;-71
2022/08/27 02:38:02;;;;;;;20.27;16.27;;;19.70;99.90;;;19.91;100.00;100631.03;4931648;29;20419;-71
2022/08/27 02:40:32;;;;;;;32.13;18.63;;;19.70;99.90;;;20.11;100.00;100635.75;4932922;29;20500;-71
2022/08/27 02:43:01;;;;;;;18.37;16.43;;;19.80;99.90;;;20.34;100.00;100630.63;4935945;29;20467;-72
2022/08/27 02:45:30;;;;;;;30.50;16.47;;;19.90;99.90;;;20.32;100.00;100630.06;4938503;28;20984;-71
2022/08/27 02:47:59;;;;;;;19.33;16.70;;;20.00;99.90;;;20.25;100.00;100626.72;4930040;29;21041;-71
2022/08/27 02:50:28;;;;;;;21.53;17.03;;;20.00;99.90;;;20.26;100.00;100627.56;4934768;29;20483;-71
2022/08/27 02:52:56;;;;;;;26.50;17.97;;;20.00;99.90;;;20.21;100.00;100622.88;4933448;29;20446;-72
2022/08/27 02:55:25;;;;;;;24.57;16.93;;;20.00;99.90;;;20.16;100.00;100622.88;4933144;29;20985;-72
2022/08/27 02:57:56;;;;;;;23.70;16.87;;;20.00;99.90;;;20.12;100.00;100626.44;4932553;29;20521;-72
2022/08/27 03:00:27;;;;;;;19.53;17.33;;;19.90;99.90;;;20.10;100.00;100629.44;4931007;29;20845;-70
2022/08/27 03:02:57;;;;;;;30.97;22.13;;;19.90;99.90;;;20.12;100.00;100627.25;4933140;29;20524;-71
2022/08/27 03:05:26;;;;;;;23.97;18.77;;;20.00;99.90;;;20.17;100.00;100627.28;4931601;29;20456;-72
2022/08/27 03:07:56;;;;;;;25.17;17.03;;;20.00;99.90;;;20.08;100.00;100631.66;4937395;29;20514;-72
2022/08/27 03:10:24;;;;;;;26.27;18.10;;;19.90;99.90;;;20.03;100.00;100628.88;4933034;29;20482;-72
2022/08/27 03:12:54;;;;;;;23.07;18.13;;;19.90;99.90;;;19.88;100.00;100637.91;4929581;29;20473;-72
2022/08/27 03:15:24;;;;;;;25.27;18.97;;;19.80;99.90;;;20.10;100.00;100640.44;4938445;29;20845;-72
2022/08/27 03:20:43;;;;;;;24.10;17.30;;;20.00;99.90;;;20.71;100.00;100640.53;4928569;29;20454;-71
2022/08/27 03:23:14;;;;;;;23.10;18.40;;;20.30;99.90;;;21.03;100.00;100643.81;4930572;29;20468;-71
2022/08/27 03:25:51;;;;;;;22.67;16.77;;;20.50;99.90;;;21.00;100.00;100638.88;4933600;29;20906;-70
2022/08/27 03:28:24;;;;;;;27.50;18.70;;;20.60;99.90;;;20.91;100.00;100650.72;4930735;29;20874;-72
2022/08/27 03:30:59;;;;;;;23.70;16.33;;;20.60;99.90;;;20.88;100.00;100643.81;4930843;29;20473;-71
2022/08/27 03:33:30;;;;;;;26.53;19.73;;;20.60;99.90;;;20.60;100.00;100633.38;4929956;29;20467;-71
2022/08/27 03:35:59;;;;;;;27.80;19.90;;;20.40;99.90;;;20.42;100.00;100636.69;4932111;29;20476;-71
2022/08/27 03:38:27;;;;;;;27.10;19.17;;;20.30;99.90;;;20.22;100.00;100637.44;4934436;29;20449;-72
2022/08/27 03:40:56;;;;;;;33.67;22.00;;;20.10;99.90;;;20.10;100.00;100634.94;4936993;29;21753;-72
2022/08/27 03:43:26;;;;;;;32.40;19.63;;;20.00;99.90;;;19.89;100.00;100633.25;4932048;29;20500;-71
2022/08/27 03:45:55;;;;;;;26.47;20.53;;;19.80;99.90;;;19.77;100.00;100627.97;4929922;29;20440;-72
2022/08/27 03:48:33;;;;;;;26.17;19.10;;;19.70;99.90;;;19.76;100.00;100633.72;4934642;29;20459;-72
2022/08/27 03:51:07;;;;;;;38.80;23.17;;;19.60;99.90;;;19.79;100.00;100628.53;4930079;29;20580;-73
2022/08/27 03:53:39;;;;;;;34.50;23.23;;;19.60;99.90;;;19.93;100.00;100620.63;4929357;29;20515;-72
2022/08/27 03:56:08;;;;;;;35.60;22.10;;;19.70;99.90;;;19.81;100.00;100622.75;4933355;29;20444;-71
2022/08/27 03:58:39;;;;;;;28.27;19.30;;;19.60;99.90;;;19.80;100.00;100618.38;4933465;28;20455;-71
2022/08/27 04:01:09;;;;;;;31.33;20.37;;;19.60;99.90;;;19.76;100.00;100620.00;4931447;29;20531;-73
2022/08/27 04:03:38;;;;;;;30.13;19.63;;;19.60;99.90;;;19.73;100.00;100615.06;4936552;29;20869;-73
2022/08/27 04:06:07;;;;;;;32.47;20.30;;;19.50;99.90;;;19.69;100.00;100608.47;4930789;28;20471;-71
2022/08/27 04:08:36;;;;;;;31.80;20.47;;;19.50;99.90;;;19.62;100.00;100608.69;4932561;29;20456;-72
2022/08/27 04:11:07;;;;;;;26.17;21.00;;;19.50;99.90;;;19.56;100.00;100614.47;4931710;29;21007;-72
2022/08/27 04:13:39;;;;;;;31.87;22.03;;;19.40;99.90;;;19.56;100.00;100617.19;4935189;29;20519;-72
2022/08/27 04:16:08;;;;;;;26.00;19.60;;;19.40;99.90;;;19.49;100.00;100618.25;4930687;29;20449;-71
2022/08/27 04:18:38;;;;;;;30.10;21.10;;;19.30;99.90;;;19.44;100.00;100626.47;4930646;29;20853;-72
2022/08/27 04:21:12;;;;;;;30.30;20.77;;;19.30;99.90;;;19.41;100.00;100626.97;4926624;29;20500;-72
2022/08/27 04:23:42;;;;;;;30.60;19.33;;;19.30;99.90;;;19.56;100.00;100628.97;4932798;29;20430;-72
2022/08/27 04:26:13;;;;;;;28.07;18.73;;;19.30;99.90;;;19.49;100.00;100622.94;4933518;29;20459;-72
2022/08/27 04:28:44;;;;;;;30.47;23.00;;;19.30;99.90;;;19.50;100.00;100630.06;4928591;29;20476;-72
2022/08/27 04:31:17;;;;;;;33.13;19.33;;;19.30;99.90;;;19.52;100.00;100628.69;4927650;29;20469;-72
2022/08/27 04:33:46;;;;;;;27.27;17.23;;;19.40;99.90;;;19.43;100.00;100629.44;4931658;29;20585;-72
2022/08/27 04:36:19;;;;;;;27.63;19.40;;;19.30;99.90;;;19.44;100.00;100634.69;4929203;29;20452;-71
2022/08/27 04:38:49;;;;;;;25.50;18.70;;;19.30;99.90;;;19.41;100.00;100635.19;4929605;29;20423;-70
2022/08/27 04:41:22;;;;;;;28.37;19.60;;;19.30;99.90;;;19.62;100.00;100643.56;4931268;29;20450;-72
2022/08/27 04:43:55;;;;;;;30.90;19.97;;;19.40;99.90;;;19.51;100.00;100646.25;4930022;29;20558;-72
2022/08/27 04:46:26;;;;;;;31.90;22.10;;;19.30;99.90;;;19.49;100.00;100640.22;4928072;29;20418;-72
2022/08/27 04:48:57;;;;;;;28.80;20.00;;;19.30;99.90;;;19.59;100.00;100638.59;4931481;29;20914;-71
2022/08/27 04:51:27;;;;;;;35.00;22.47;;;19.30;99.90;;;19.52;100.00;100642.41;4930076;29;20508;-73
2022/08/27 04:53:57;;;;;;;28.27;19.67;;;19.40;99.90;;;19.49;100.00;100632.00;4929599;29;20500;-72
2022/08/27 04:56:29;;;;;;;31.57;21.63;;;19.30;99.90;;;19.53;100.00;100641.34;4930527;29;20535;-72
2022/08/27 04:59:02;;;;;;;32.27;19.30;;;19.30;99.90;;;19.61;100.00;100642.72;4929264;29;21007;-72
2022/08/27 05:01:31;;;;;;;29.50;20.63;;;19.40;99.90;;;19.53;100.00;100638.59;4929232;29;20423;-71
2022/08/27 05:04:00;;;;;;;37.10;22.03;;;19.30;99.90;;;19.57;100.00;100646.28;4930500;29;20488;-73
2022/08/27 05:06:29;;;;;;;32.40;20.67;;;19.40;99.90;;;19.66;100.00;100644.66;4929823;29;20459;-72
2022/08/27 05:08:59;;;;;;;35.33;18.67;;;19.40;99.90;;;19.51;100.00;100637.19;4931564;29;20445;-73
2022/08/27 05:11:33;;;;;;;29.30;19.87;;;19.40;99.90;;;19.60;100.00;100641.09;4934031;29;20539;-73
2022/08/27 05:14:05;;;;;;;31.37;21.20;;;19.40;99.90;;;19.59;100.00;100644.94;4929788;29;20463;-72
2022/08/27 05:16:35;;;;;;;30.97;20.47;;;19.40;99.90;;;19.43;100.00;100641.25;4929784;29;20438;-73
2022/08/27 05:19:08;;;;;;;35.37;20.53;;;19.30;99.90;;;19.51;100.00;100640.75;4931424;29;20427;-72
2022/08/27 05:21:46;;;;;;;40.80;24.10;;;19.30;99.90;;;19.57;100.00;100640.78;4928681;29;20518;-72
2022/08/27 05:24:16;;;;;;;33.47;19.50;;;19.30;99.90;;;19.51;100.00;100649.00;4934528;29;20933;-72
2022/08/27 05:26:46;;;;;;;32.07;21.93;;;19.30;99.90;;;19.51;100.00;100643.50;4955255;23;20578;-71
2022/08/27 05:29:17;;;;;;;36.33;20.50;;;19.30;99.90;;;19.50;100.00;100639.13;4954182;28;20479;-72
2022/08/27 05:31:47;;;;;;;27.93;18.07;;;19.30;99.90;;;19.50;100.00;100639.13;4946890;28;20503;-71
2022/08/27 05:34:16;;;;;;;32.17;23.07;;;19.30;99.90;;;19.53;100.00;100635.84;4947385;28;20511;-71
2022/08/27 05:36:54;;;;;;;28.57;20.50;;;19.30;99.90;;;19.53;100.00;100638.59;4930546;29;20479;-72
2022/08/27 05:39:23;;;;;;;34.43;23.40;;;19.30;99.90;;;19.64;100.00;100647.69;4932973;28;20476;-71
2022/08/27 05:41:56;;;;;;;31.77;21.50;;;19.40;99.90;;;19.73;100.00;100645.25;4929612;29;20456;-71
2022/08/27 05:44:27;;;;;;;37.47;20.67;;;19.50;99.90;;;19.71;100.00;100647.44;4931876;29;21053;-71
2022/08/27 05:47:12;;;;;;;29.60;19.93;;;19.40;99.90;;;19.74;100.00;100644.16;4929440;29;20448;-71
2022/08/27 05:49:40;;;;;;;32.37;20.50;;;19.40;99.90;;;19.71;100.00;100639.19;4935877;29;20507;-71
2022/08/27 05:52:11;;;;;;;31.33;19.10;;;19.50;99.90;;;19.70;100.00;100646.63;4933113;29;20555;-71
2022/08/27 05:54:43;;;;;;;25.73;18.00;;;19.50;99.90;;;19.76;100.00;100644.72;4937629;29;20474;-71
2022/08/27 05:57:12;;;;;;;26.20;18.47;;;19.50;99.90;;;19.83;100.00;100645.28;4938919;29;20451;-71
2022/08/27 06:02:28;;;;;;;24.57;17.57;;;19.50;99.90;;;19.75;100.00;100654.84;4933390;29;20449;-71
2022/08/27 06:04:57;;;;;;;28.23;18.60;;;19.50;99.90;;;19.91;100.00;100662.06;4938006;29;20942;-70
2022/08/27 06:07:28;;;;;;;27.47;18.97;;;19.60;99.90;;;20.16;100.00;100649.50;4927204;29;20450;-71
2022/08/27 06:09:58;;;;;;;31.53;19.00;;;19.80;99.90;;;20.09;100.00;100644.25;4933462;29;20476;-71
2022/08/27 06:12:28;;;;;;;20.83;15.97;;;19.80;99.90;;;20.08;100.00;100659.13;4931717;29;21054;-72
2022/08/27 06:14:58;;;;;;;26.20;17.03;;;19.80;99.90;;;20.02;100.00;100657.44;4935877;28;20478;-71
2022/08/27 06:17:28;;;;;;;22.33;17.57;;;19.80;99.90;;;20.05;100.00;100659.63;4927649;28;21138;-71
2022/08/27 06:19:58;;;;;;;21.77;16.50;;;19.80;99.90;;;20.16;100.00;100661.31;4923344;29;20825;-72
2022/08/27 06:22:26;;;;;;;19.07;14.07;;;19.90;99.90;;;20.22;100.00;100665.75;4928822;29;20540;-71
2022/08/27 06:24:56;;;;;;;17.97;13.60;;;20.00;99.90;;;20.17;100.00;100662.97;4923992;29;20432;-72
2022/08/27 06:27:24;;;;;;;14.07;12.23;;;19.90;99.90;;;20.13;100.00;100656.38;4931346;29;20449;-71
2022/08/27 06:29:53;;;;;;;16.90;13.30;;;19.90;99.90;;;20.21;100.00;100664.09;4926898;28;20451;-72
2022/08/27 06:32:24;;;;;;;17.17;12.43;;;19.90;99.90;;;20.21;100.00;100661.34;4928277;29;20456;-71
2022/08/27 06:34:54;;;;;;;14.90;13.43;;;19.90;99.90;;;20.19;100.00;100660.78;4929719;29;20471;-71
2022/08/27 06:37:26;;;;;;;18.27;11.50;;;19.90;99.90;;;20.28;100.00;100659.13;4933456;29;20462;-71
2022/08/27 06:39:55;;;;;;;12.57;11.20;;;20.00;99.90;;;20.32;100.00;100671.28;4926976;29;20456;-71
2022/08/27 06:42:24;;;;;;;11.97;10.87;;;20.00;99.90;;;20.21;100.00;100668.75;4931112;29;20445;-71
2022/08/27 06:44:54;;;;;;;14.20;11.47;;;20.00;99.90;;;20.20;100.00;100670.66;4928092;29;20584;-71
2022/08/27 06:47:24;;;;;;;16.43;12.10;;;20.00;99.90;;;20.28;100.00;100675.63;4932168;29;20456;-72
2022/08/27 06:49:54;;;;;;;16.63;11.67;;;20.00;99.90;;;20.29;100.00;100680.03;4934323;28;20451;-71
2022/08/27 06:52:23;;;;;;;13.30;11.90;;;20.10;99.90;;;20.22;100.00;100681.41;4933812;28;20483;-73
2022/08/27 06:54:52;;;;;;;17.70;13.30;;;20.00;99.90;;;20.26;100.00;100688.81;4937268;29;20467;-71
2022/08/27 06:57:23;;;;;;;21.10;14.93;;;20.00;99.90;;;20.36;100.00;100683.38;4931537;29;20585;-73
2022/08/27 06:59:52;;;;;;;16.33;12.90;;;20.00;99.90;;;20.32;100.00;100689.69;4927145;29;20415;-72
2022/08/27 07:02:23;;;;;;;17.30;13.53;;;20.10;99.90;;;20.28;100.00;100691.31;4925574;29;20488;-73
2022/08/27 07:04:54;;;;;;;16.70;12.93;;;20.00;99.90;;;20.30;100.00;100686.34;4935683;29;20460;-73
2022/08/27 07:07:24;;;;;;;17.43;13.27;;;20.10;99.90;;;20.21;100.00;100697.06;4934941;29;20553;-72
2022/08/27 07:10:03;;;;;;;18.53;15.23;;;20.00;99.90;;;20.23;100.00;100705.88;4932367;29;20428;-72
2022/08/27 07:12:32;;;;;;;15.80;13.33;;;20.00;99.90;;;20.42;100.00;100697.97;4928191;29;20530;-72
2022/08/27 07:15:01;;;;;;;16.40;12.63;;;20.10;99.90;;;20.52;100.00;100702.66;4931525;29;20526;-72
2022/08/27 07:17:33;;;;;;;18.80;13.27;;;20.20;99.90;;;20.45;100.00;100702.91;4938355;28;20601;-72
2022/08/27 07:20:03;;;;;;;17.70;13.73;;;20.20;99.90;;;20.35;100.00;100706.47;4921929;29;20424;-72
2022/08/27 07:22:32;;;;;;;14.70;12.60;;;20.20;99.90;;;20.34;100.00;100703.97;4921668;29;20445;-72
2022/08/27 07:25:01;;;;;;;19.57;12.90;;;20.10;99.90;;;20.45;100.00;100699.34;4921096;29;20477;-72
2022/08/27 07:27:30;;;;;;;19.47;12.93;;;20.20;99.90;;;20.60;100.00;100704.88;4926491;29;20528;-72
2022/08/27 07:30:00;;;;;;;12.93;11.13;;;20.30;99.90;;;20.53;100.00;100701.53;4929033;29;20453;-72
2022/08/27 07:32:29;;;;;;;17.50;13.77;;;20.20;99.90;;;20.58;100.00;100698.81;4931206;29;20487;-72
2022/08/27 07:35:01;;;;;;;16.60;12.03;;;20.30;99.90;;;20.62;100.00;100697.19;4917899;29;20496;-72
2022/08/27 07:37:31;;;;;;;14.03;12.07;;;20.30;99.90;;;20.80;100.00;100707.63;4928472;29;20453;-72
2022/08/27 07:40:06;;;;;;;12.27;10.97;;;20.40;99.90;;;20.70;100.00;100699.38;4927359;29;20579;-72
2022/08/27 07:45:22;;;;;;;14.53;9.87;;;20.40;99.90;;;20.58;100.00;100704.28;4930696;29;20484;-71
2022/08/27 07:47:51;;;;;;;10.90;9.80;;;20.40;99.90;;;20.69;100.00;100703.22;4925072;29;20428;-71
2022/08/27 07:50:23;;;;;;;13.07;10.50;;;20.40;99.90;;;20.69;100.00;100704.03;4933032;29;20434;-73
2022/08/27 07:52:53;;;;;;;13.77;10.80;;;20.50;99.90;;;20.77;100.00;100706.25;4933256;29;20789;-71
2022/08/27 07:55:22;;;;;;;11.77;10.47;;;20.50;99.90;;;20.82;100.00;100708.16;4932122;29;20977;-72
2022/08/27 07:57:51;;;;;;;13.20;10.67;;;20.60;99.90;;;20.96;100.00;100692.75;4930897;29;20423;-73
2022/08/27 08:00:20;;;;;;;11.30;9.80;;;20.60;99.90;;;21.07;98.54;100693.59;4930239;29;20442;-72
2022/08/27 08:02:49;;;;;;;12.20;10.37;;;20.70;99.90;;;20.87;99.69;100694.41;4927935;29;20423;-72
2022/08/27 08:05:19;;;;;;;11.73;10.53;;;20.70;99.90;;;20.86;99.79;100692.78;4929360;29;20584;-72
2022/08/27 08:07:50;;;;;;;10.40;9.20;;;20.60;99.90;;;20.85;100.00;100696.63;4925887;29;20453;-72
2022/08/27 08:10:22;;;;;;;10.80;9.70;;;20.60;99.90;;;21.08;98.08;100693.31;4927559;29;20501;-73
2022/08/27 08:12:51;;;;;;;10.30;9.27;;;20.70;99.90;;;20.91;98.38;100701.06;4929452;29;20609;-72
2022/08/27 08:15:21;;;;;;;10.70;9.47;;;20.70;99.90;;;21.04;98.08;100697.72;4933427;29;20783;-71
2022/08/27 08:17:50;;;;;;;10.27;9.27;;;20.70;99.90;;;21.14;97.65;100705.19;4923625;29;21040;-73
2022/08/27 08:20:19;;;;;;;11.30;10.10;;;20.80;99.90;;;21.16;97.14;100697.47;4927007;29;20465;-72
2022/08/27 08:23:10;;;;;;;13.83;11.17;;;20.90;99.90;;;21.14;97.25;100706.00;4934635;28;20536;-72
2022/08/27 08:25:39;;;;;;;11.80;10.60;;;20.80;99.90;;;21.10;97.48;100721.41;4917966;29;20845;-72
2022/08/27 08:28:10;;;;;;;11.97;10.53;;;20.90;99.90;;;21.12;98.19;100716.44;4928830;29;21020;-72
2022/08/27 08:30:42;;;;;;;17.90;10.70;;;20.90;99.90;;;20.93;99.83;100715.34;4926135;29;20447;-73
2022/08/27 08:33:12;;;;;;;15.83;11.60;;;20.70;99.90;;;21.08;97.54;100712.59;4928306;29;20989;-72
2022/08/27 08:35:41;;;;;;;11.43;9.87;;;20.90;99.90;;;21.02;99.46;100710.09;4932255;29;20947;-73
2022/08/27 08:38:11;;;;;;;14.67;11.40;;;20.80;99.90;;;21.12;98.92;100710.94;4922898;29;20865;-72
2022/08/27 08:40:48;;;;;;;14.00;11.23;;;20.80;99.90;;;21.28;97.71;100710.94;4927399;29;20442;-72
2022/08/27 08:43:31;;;;;;;13.73;11.70;;;20.90;99.90;;;21.22;97.61;100702.69;4925650;29;20910;-72
2022/08/27 08:46:12;;;;;;;12.40;10.43;;;20.90;99.90;;;21.03;97.80;100704.34;4933985;29;20444;-74
2022/08/27 08:48:49;;;;;;;13.57;11.43;;;20.80;99.90;;;20.91;99.37;100690.03;4933476;28;20452;-72
2022/08/27 08:51:26;;;;;;;14.20;12.27;;;20.70;99.90;;;20.97;98.79;100682.59;4941829;29;20418;-73
2022/08/27 08:54:03;;;;;;;13.90;11.17;;;20.70;99.90;;;20.98;98.37;100681.50;4934876;29;20459;-71
2022/08/27 08:56:43;;;;;;;13.60;11.60;;;20.70;99.90;;;21.02;99.00;100677.91;4925528;29;20461;-71
2022/08/27 08:59:21;;;;;;;15.87;11.70;;;20.70;99.90;;;20.95;98.92;100674.63;4938405;28;20763;-73
2022/08/27 09:01:50;;;;;;;12.37;10.80;;;20.80;99.90;;;21.11;99.04;100687.25;4924551;29;20415;-73
2022/08/27 09:04:19;;;;;;;18.60;12.07;;;20.80;99.90;;;21.12;99.36;100685.34;4925900;29;20476;-72
2022/08/27 09:06:58;;;;;;;14.73;10.70;;;20.90;99.90;;;21.17;97.98;100685.38;4935604;29;20943;-73
2022/08/27 09:09:37;;;;;;;15.37;11.63;;;21.00;99.90;;;21.03;98.65;100689.75;4929193;28;20986;-73
2022/08/27 09:12:15;;;;;;;14.17;10.50;;;20.90;99.90;;;21.07;99.58;100694.41;4944733;29;20439;-72
2022/08/27 09:14:52;;;;;;;17.23;12.00;;;20.80;99.90;;;21.05;98.81;100691.13;4928126;29;20457;-72
2022/08/27 09:17:22;;;;;;;13.23;10.93;;;20.80;99.90;;;21.18;98.68;100679.59;4925491;29;21025;-71
2022/08/27 09:19:51;;;;;;;12.13;10.27;;;20.90;99.90;;;21.08;97.87;100674.06;4930959;29;20547;-71
2022/08/27 09:22:35;;;;;;;14.23;12.00;;;20.90;99.90;;;21.03;99.56;100665.81;4938282;29;20874;-71
2022/08/27 09:25:13;;;;;;;10.73;8.70;;;20.80;99.90;;;21.10;97.47;100660.88;4925681;29;20952;-72
2022/08/27 09:27:51;;;;;;;9.60;8.50;;;20.80;99.90;;;21.19;97.68;100670.25;4927698;29;20472;-73
2022/08/27 09:30:25;;;;;;;10.20;8.67;;;20.90;99.90;;;21.25;97.50;100674.59;4925339;29;20943;-71
2022/08/27 09:33:03;;;;;;;11.33;8.97;;;21.00;99.90;;;21.45;95.67;100675.66;4933085;29;20462;-72
2022/08/27 09:35:43;;;;;;;9.13;8.00;;;21.10;99.90;;;21.16;97.61;100670.78;4932350;29;20502;-72
2022/08/27 09:38:26;;;;;;;14.73;11.87;;;21.00;99.90;;;21.54;96.05;100665.75;4928487;29;20448;-72
2022/08/27 09:41:06;;;;;;;10.77;7.90;;;21.10;99.90;;;21.86;92.52;100655.16;4923382;29;20443;-73
2022/08/27 09:43:35;;;;;;;9.47;8.57;;;21.40;99.90;;;22.05;92.48;100656.19;4934381;29;20494;-71
2022/08/27 09:46:18;;;;;;;10.60;8.40;;;21.60;99.90;;;22.60;91.13;100676.25;4924389;29;20524;-72
2022/08/27 09:48:49;;;;;;;9.60;7.27;;;22.00;99.90;;;22.64;89.63;100674.56;4928459;29;20804;-71
2022/08/27 09:51:26;;;;;;;12.60;9.07;;;22.20;99.90;;;22.73;88.66;100692.16;4928219;28;20944;-71
2022/08/27 09:53:58;;;;;;;9.33;8.30;;;22.40;99.90;;;22.69;88.42;100693.81;4933512;29;20566;-71
2022/08/27 09:56:33;;;;;;;10.23;9.37;;;22.40;99.90;;;22.64;88.29;100691.09;4928428;29;20811;-72
2022/08/27 09:59:07;;;;;;;9.20;8.30;;;22.40;99.90;;;22.42;89.28;100702.53;4939745;28;20506;-71
2022/08/27 10:01:51;;;;;;;8.10;7.40;;;22.20;99.90;;;22.56;88.46;100705.47;4933937;29;20426;-72
2022/08/27 10:04:33;;;;;;;13.80;7.67;;;22.30;99.90;;;22.33;90.51;100711.69;4930624;29;20468;-71
2022/08/27 10:07:39;;;;;;;9.80;8.13;;;22.10;99.90;;;22.16;91.08;100714.84;4932680;29;20861;-71
2022/08/27 10:10:17;;;;;;;9.53;8.67;;;21.90;99.90;;;22.62;91.06;100718.13;4926446;29;20463;-72
2022/08/27 10:12:56;;;;;;;10.17;8.20;;;22.10;99.90;;;23.12;88.01;100719.72;4935195;29;20472;-72
2022/08/27 10:15:34;;;;;;;9.70;8.80;;;22.50;99.90;;;23.19;86.88;100714.66;4927876;29;20869;-72
2022/08/27 10:18:22;;;;;;;8.30;7.60;;;22.70;99.90;;;23.07;85.98;100728.03;4933392;29;20440;-73
2022/08/27 10:21:07;;;;;;;7.93;7.17;;;22.70;99.90;;;23.07;86.03;100727.22;4929050;29;20838;-72
2022/08/27 10:23:49;;;;;;;9.63;8.37;;;22.80;99.90;;;22.77;88.95;100723.59;4931800;29;20935;-72